sensor_id;sensor_type;location;lat;lon;timestamp;P1;durP1;ratioP1;P2;durP2;ratioP2
26106;SDS011;13866;50.748;12.630;2022-10-31T00:00:41;4.80;;;3.77;;
26106;SDS011;13866;50.748;12.630;2022-10-31T00:03:06;7.63;;;3.43;;
26106;SDS011;13866;50.748;12.630;2022-10-31T00:05:32;3.27;;;3.07;;
26106;SDS011;13866;50.748;12.630;2022-10-31T00:07:57;5.87;;;3.50;;
26106;SDS011;13866;50.748;12.630;2022-10-31T00:10:23;3.40;;;3.20;;
26106;SDS011;13866;50.748;12.630;2022-10-31T00:12:48;3.27;;;3.07;;
26106;SDS011;13866;50.748;12.630;2022-10-31T00:15:14;3.47;;;3.10;;
26106;SDS011;13866;50.748;12.630;2022-10-31T00:17:39;3.70;;;3.37;;
26106;SDS011;13866;50.748;12.630;2022-10-31T00:20:05;3.53;;;3.43;;
26106;SDS011;13866;50.748;12.630;2022-10-31T00:22:31;9.07;;;4.00;;
26106;SDS011;13866;50.748;12.630;2022-10-31T00:24:57;3.90;;;3.70;;
26106;SDS011;13866;50.748;12.630;2022-10-31T00:27:22;5.00;;;3.10;;
26106;SDS011;13866;50.748;12.630;2022-10-31T00:29:48;3.73;;;3.57;;
26106;SDS011;13866;50.748;12.630;2022-10-31T00:32:13;6.10;;;3.60;;
26106;SDS011;13866;50.748;12.630;2022-10-31T00:34:39;9.10;;;3.57;;
26106;SDS011;13866;50.748;12.630;2022-10-31T00:37:04;7.17;;;4.30;;
26106;SDS011;13866;50.748;12.630;2022-10-31T00:39:30;11.17;;;3.83;;
26106;SDS011;13866;50.748;12.630;2022-10-31T00:41:55;4.80;;;3.40;;
26106;SDS011;13866;50.748;12.630;2022-10-31T00:44:21;4.63;;;4.23;;
26106;SDS011;13866;50.748;12.630;2022-10-31T00:46:46;6.73;;;4.53;;
26106;SDS011;13866;50.748;12.630;2022-10-31T00:49:11;7.17;;;4.20;;
26106;SDS011;13866;50.748;12.630;2022-10-31T00:51:37;4.03;;;3.63;;
26106;SDS011;13866;50.748;12.630;2022-10-31T00:54:03;7.20;;;3.53;;
26106;SDS011;13866;50.748;12.630;2022-10-31T00:56:28;6.20;;;4.00;;
26106;SDS011;13866;50.748;12.630;2022-10-31T00:58:54;8.77;;;3.70;;
26106;SDS011;13866;50.748;12.630;2022-10-31T01:01:19;9.63;;;3.50;;
26106;SDS011;13866;50.748;12.630;2022-10-31T01:03:45;4.43;;;3.40;;
26106;SDS011;13866;50.748;12.630;2022-10-31T01:06:11;15.93;;;3.90;;
26106;SDS011;13866;50.748;12.630;2022-10-31T01:08:38;4.17;;;3.37;;
26106;SDS011;13866;50.748;12.630;2022-10-31T01:11:05;7.60;;;3.87;;
26106;SDS011;13866;50.748;12.630;2022-10-31T01:13:37;6.40;;;4.30;;
26106;SDS011;13866;50.748;12.630;2022-10-31T01:16:03;5.33;;;3.80;;
26106;SDS011;13866;50.748;12.630;2022-10-31T01:18:30;8.20;;;4.07;;
26106;SDS011;13866;50.748;12.630;2022-10-31T01:23:30;6.80;;;3.97;;
26106;SDS011;13866;50.748;12.630;2022-10-31T01:26:04;5.53;;;3.20;;
26106;SDS011;13866;50.748;12.630;2022-10-31T01:28:32;4.60;;;3.67;;
26106;SDS011;13866;50.748;12.630;2022-10-31T01:31:06;3.17;;;3.07;;
26106;SDS011;13866;50.748;12.630;2022-10-31T01:33:33;5.60;;;3.43;;
26106;SDS011;13866;50.748;12.630;2022-10-31T01:35:59;3.60;;;3.40;;
26106;SDS011;13866;50.748;12.630;2022-10-31T01:38:25;3.93;;;3.43;;
26106;SDS011;13866;50.748;12.630;2022-10-31T01:40:51;4.20;;;3.70;;
26106;SDS011;13866;50.748;12.630;2022-10-31T01:43:17;3.70;;;3.50;;
26106;SDS011;13866;50.748;12.630;2022-10-31T01:45:45;4.57;;;3.97;;
26106;SDS011;13866;50.748;12.630;2022-10-31T01:48:16;5.30;;;3.47;;
26106;SDS011;13866;50.748;12.630;2022-10-31T01:50:45;6.83;;;3.50;;
26106;SDS011;13866;50.748;12.630;2022-10-31T01:53:13;4.43;;;4.00;;
26106;SDS011;13866;50.748;12.630;2022-10-31T01:55:41;3.50;;;3.27;;
26106;SDS011;13866;50.748;12.630;2022-10-31T01:58:13;4.40;;;4.10;;
26106;SDS011;13866;50.748;12.630;2022-10-31T02:00:44;25.87;;;4.43;;
26106;SDS011;13866;50.748;12.630;2022-10-31T02:03:13;5.70;;;3.90;;
26106;SDS011;13866;50.748;12.630;2022-10-31T02:05:39;8.03;;;4.00;;
26106;SDS011;13866;50.748;12.630;2022-10-31T02:08:13;4.77;;;3.90;;
26106;SDS011;13866;50.748;12.630;2022-10-31T02:10:45;4.07;;;3.50;;
26106;SDS011;13866;50.748;12.630;2022-10-31T02:13:11;4.20;;;3.80;;
26106;SDS011;13866;50.748;12.630;2022-10-31T02:15:38;14.63;;;3.77;;
26106;SDS011;13866;50.748;12.630;2022-10-31T02:18:05;5.67;;;3.87;;
26106;SDS011;13866;50.748;12.630;2022-10-31T02:20:35;4.03;;;3.53;;
26106;SDS011;13866;50.748;12.630;2022-10-31T02:36:58;4.20;;;4.00;;
26106;SDS011;13866;50.748;12.630;2022-10-31T02:39:37;14.10;;;3.80;;
26106;SDS011;13866;50.748;12.630;2022-10-31T02:42:18;4.60;;;4.30;;
26106;SDS011;13866;50.748;12.630;2022-10-31T02:47:32;9.50;;;3.30;;
26106;SDS011;13866;50.748;12.630;2022-10-31T02:52:38;4.07;;;3.73;;
26106;SDS011;13866;50.748;12.630;2022-10-31T02:55:11;4.20;;;3.40;;
26106;SDS011;13866;50.748;12.630;2022-10-31T02:57:49;4.83;;;3.00;;
26106;SDS011;13866;50.748;12.630;2022-10-31T03:00:21;6.43;;;4.60;;
26106;SDS011;13866;50.748;12.630;2022-10-31T03:11:35;4.40;;;4.17;;
26106;SDS011;13866;50.748;12.630;2022-10-31T03:14:28;9.47;;;3.67;;
26106;SDS011;13866;50.748;12.630;2022-10-31T03:17:04;4.10;;;3.70;;
26106;SDS011;13866;50.748;12.630;2022-10-31T03:19:33;3.57;;;3.33;;
26106;SDS011;13866;50.748;12.630;2022-10-31T03:22:15;11.23;;;3.97;;
26106;SDS011;13866;50.748;12.630;2022-10-31T03:24:44;4.00;;;3.80;;
26106;SDS011;13866;50.748;12.630;2022-10-31T03:27:13;5.10;;;3.80;;
26106;SDS011;13866;50.748;12.630;2022-10-31T03:29:42;4.53;;;4.10;;
26106;SDS011;13866;50.748;12.630;2022-10-31T03:32:10;5.13;;;3.70;;
26106;SDS011;13866;50.748;12.630;2022-10-31T03:34:39;5.43;;;4.03;;
26106;SDS011;13866;50.748;12.630;2022-10-31T03:37:09;6.30;;;5.03;;
26106;SDS011;13866;50.748;12.630;2022-10-31T03:39:36;6.10;;;3.57;;
26106;SDS011;13866;50.748;12.630;2022-10-31T03:44:37;4.97;;;4.13;;
26106;SDS011;13866;50.748;12.630;2022-10-31T03:47:05;4.93;;;4.00;;
26106;SDS011;13866;50.748;12.630;2022-10-31T03:49:31;8.30;;;4.10;;
26106;SDS011;13866;50.748;12.630;2022-10-31T03:52:02;7.43;;;3.27;;
26106;SDS011;13866;50.748;12.630;2022-10-31T03:54:46;4.13;;;3.73;;
26106;SDS011;13866;50.748;12.630;2022-10-31T03:57:24;4.73;;;4.10;;
26106;SDS011;13866;50.748;12.630;2022-10-31T04:00:11;4.03;;;3.40;;
26106;SDS011;13866;50.748;12.630;2022-10-31T04:02:39;4.40;;;4.10;;
26106;SDS011;13866;50.748;12.630;2022-10-31T04:05:08;4.07;;;3.87;;
26106;SDS011;13866;50.748;12.630;2022-10-31T04:07:39;4.67;;;4.27;;
26106;SDS011;13866;50.748;12.630;2022-10-31T04:10:09;6.43;;;3.70;;
26106;SDS011;13866;50.748;12.630;2022-10-31T04:12:37;13.50;;;4.23;;
26106;SDS011;13866;50.748;12.630;2022-10-31T04:15:04;3.77;;;3.47;;
26106;SDS011;13866;50.748;12.630;2022-10-31T04:17:33;4.40;;;4.10;;
26106;SDS011;13866;50.748;12.630;2022-10-31T04:20:04;3.57;;;3.27;;
26106;SDS011;13866;50.748;12.630;2022-10-31T04:22:30;14.07;;;4.40;;
26106;SDS011;13866;50.748;12.630;2022-10-31T04:24:55;5.70;;;4.10;;
26106;SDS011;13866;50.748;12.630;2022-10-31T04:27:21;5.80;;;4.40;;
26106;SDS011;13866;50.748;12.630;2022-10-31T04:29:47;4.43;;;3.33;;
26106;SDS011;13866;50.748;12.630;2022-10-31T04:32:12;4.50;;;4.20;;
26106;SDS011;13866;50.748;12.630;2022-10-31T04:34:38;6.10;;;4.20;;
26106;SDS011;13866;50.748;12.630;2022-10-31T04:37:03;4.43;;;4.03;;
26106;SDS011;13866;50.748;12.630;2022-10-31T04:39:29;4.60;;;4.30;;
26106;SDS011;13866;50.748;12.630;2022-10-31T04:41:54;6.40;;;4.30;;
26106;SDS011;13866;50.748;12.630;2022-10-31T04:44:20;6.93;;;3.97;;
26106;SDS011;13866;50.748;12.630;2022-10-31T04:46:45;3.90;;;3.40;;
26106;SDS011;13866;50.748;12.630;2022-10-31T04:49:11;9.37;;;4.60;;
26106;SDS011;13866;50.748;12.630;2022-10-31T04:51:36;5.07;;;3.43;;
26106;SDS011;13866;50.748;12.630;2022-10-31T04:54:02;7.60;;;5.00;;
26106;SDS011;13866;50.748;12.630;2022-10-31T04:56:28;9.20;;;3.80;;
26106;SDS011;13866;50.748;12.630;2022-10-31T04:58:53;4.37;;;3.70;;
26106;SDS011;13866;50.748;12.630;2022-10-31T05:01:19;15.50;;;4.23;;
26106;SDS011;13866;50.748;12.630;2022-10-31T05:03:44;8.77;;;4.30;;
26106;SDS011;13866;50.748;12.630;2022-10-31T05:06:10;8.27;;;4.17;;
26106;SDS011;13866;50.748;12.630;2022-10-31T05:08:35;6.40;;;4.43;;
26106;SDS011;13866;50.748;12.630;2022-10-31T05:11:01;4.07;;;3.63;;
26106;SDS011;13866;50.748;12.630;2022-10-31T05:13:27;3.00;;;2.90;;
26106;SDS011;13866;50.748;12.630;2022-10-31T05:15:53;5.27;;;4.43;;
26106;SDS011;13866;50.748;12.630;2022-10-31T05:18:19;10.93;;;3.90;;
26106;SDS011;13866;50.748;12.630;2022-10-31T05:20:44;5.83;;;4.10;;
26106;SDS011;13866;50.748;12.630;2022-10-31T05:23:10;5.23;;;4.83;;
26106;SDS011;13866;50.748;12.630;2022-10-31T05:25:35;10.20;;;4.80;;
26106;SDS011;13866;50.748;12.630;2022-10-31T05:28:01;5.37;;;5.10;;
26106;SDS011;13866;50.748;12.630;2022-10-31T05:30:28;7.80;;;5.03;;
26106;SDS011;13866;50.748;12.630;2022-10-31T05:32:55;15.50;;;5.37;;
26106;SDS011;13866;50.748;12.630;2022-10-31T05:35:22;7.30;;;5.50;;
26106;SDS011;13866;50.748;12.630;2022-10-31T05:37:56;6.90;;;5.23;;
26106;SDS011;13866;50.748;12.630;2022-10-31T05:40:22;12.60;;;5.03;;
26106;SDS011;13866;50.748;12.630;2022-10-31T05:42:50;8.10;;;5.37;;
26106;SDS011;13866;50.748;12.630;2022-10-31T05:45:17;5.23;;;4.83;;
26106;SDS011;13866;50.748;12.630;2022-10-31T05:47:50;8.13;;;4.63;;
26106;SDS011;13866;50.748;12.630;2022-10-31T05:50:19;6.53;;;5.07;;
26106;SDS011;13866;50.748;12.630;2022-10-31T05:52:45;8.70;;;4.43;;
26106;SDS011;13866;50.748;12.630;2022-10-31T05:55:11;6.10;;;5.13;;
26106;SDS011;13866;50.748;12.630;2022-10-31T05:57:37;4.83;;;4.10;;
26106;SDS011;13866;50.748;12.630;2022-10-31T06:00:06;7.27;;;5.17;;
26106;SDS011;13866;50.748;12.630;2022-10-31T06:02:38;15.47;;;4.80;;
26106;SDS011;13866;50.748;12.630;2022-10-31T06:05:07;5.60;;;5.27;;
26106;SDS011;13866;50.748;12.630;2022-10-31T06:07:33;5.30;;;4.17;;
26106;SDS011;13866;50.748;12.630;2022-10-31T06:10:03;8.93;;;4.53;;
26106;SDS011;13866;50.748;12.630;2022-10-31T06:12:31;6.50;;;5.03;;
26106;SDS011;13866;50.748;12.630;2022-10-31T06:15:09;6.53;;;4.17;;
26106;SDS011;13866;50.748;12.630;2022-10-31T06:17:35;8.57;;;4.20;;
26106;SDS011;13866;50.748;12.630;2022-10-31T06:20:02;5.73;;;4.90;;
26106;SDS011;13866;50.748;12.630;2022-10-31T06:22:29;9.87;;;5.00;;
26106;SDS011;13866;50.748;12.630;2022-10-31T06:24:55;7.03;;;4.17;;
26106;SDS011;13866;50.748;12.630;2022-10-31T06:27:24;14.93;;;4.63;;
26106;SDS011;13866;50.748;12.630;2022-10-31T06:29:50;6.83;;;4.40;;
26106;SDS011;13866;50.748;12.630;2022-10-31T06:32:21;5.30;;;4.73;;
26106;SDS011;13866;50.748;12.630;2022-10-31T06:34:48;5.53;;;5.13;;
26106;SDS011;13866;50.748;12.630;2022-10-31T06:37:14;6.30;;;3.93;;
26106;SDS011;13866;50.748;12.630;2022-10-31T06:39:40;4.73;;;4.57;;
26106;SDS011;13866;50.748;12.630;2022-10-31T06:42:05;8.93;;;4.40;;
26106;SDS011;13866;50.748;12.630;2022-10-31T06:44:31;7.13;;;4.10;;
26106;SDS011;13866;50.748;12.630;2022-10-31T06:46:57;6.83;;;6.40;;
26106;SDS011;13866;50.748;12.630;2022-10-31T06:49:23;5.30;;;4.87;;
26106;SDS011;13866;50.748;12.630;2022-10-31T06:51:49;12.77;;;5.40;;
26106;SDS011;13866;50.748;12.630;2022-10-31T06:54:15;7.70;;;5.00;;
26106;SDS011;13866;50.748;12.630;2022-10-31T06:56:41;5.00;;;4.70;;
26106;SDS011;13866;50.748;12.630;2022-10-31T06:59:07;6.10;;;3.60;;
26106;SDS011;13866;50.748;12.630;2022-10-31T07:01:32;7.33;;;4.50;;
26106;SDS011;13866;50.748;12.630;2022-10-31T07:03:58;5.73;;;4.27;;
26106;SDS011;13866;50.748;12.630;2022-10-31T07:06:23;13.90;;;4.60;;
26106;SDS011;13866;50.748;12.630;2022-10-31T07:08:49;5.40;;;4.73;;
26106;SDS011;13866;50.748;12.630;2022-10-31T07:11:14;17.73;;;9.27;;
26106;SDS011;13866;50.748;12.630;2022-10-31T07:13:40;8.87;;;7.97;;
26106;SDS011;13866;50.748;12.630;2022-10-31T07:16:06;7.37;;;6.73;;
26106;SDS011;13866;50.748;12.630;2022-10-31T07:18:32;9.07;;;8.03;;
26106;SDS011;13866;50.748;12.630;2022-10-31T07:20:58;7.17;;;6.60;;
26106;SDS011;13866;50.748;12.630;2022-10-31T07:23:24;7.40;;;5.20;;
26106;SDS011;13866;50.748;12.630;2022-10-31T07:25:54;6.83;;;5.30;;
26106;SDS011;13866;50.748;12.630;2022-10-31T07:28:23;8.83;;;7.17;;
26106;SDS011;13866;50.748;12.630;2022-10-31T07:30:50;6.80;;;6.40;;
26106;SDS011;13866;50.748;12.630;2022-10-31T07:33:17;10.50;;;7.07;;
26106;SDS011;13866;50.748;12.630;2022-10-31T07:35:42;9.40;;;5.83;;
26106;SDS011;13866;50.748;12.630;2022-10-31T07:38:09;6.20;;;5.80;;
26106;SDS011;13866;50.748;12.630;2022-10-31T07:40:36;9.73;;;6.17;;
26106;SDS011;13866;50.748;12.630;2022-10-31T07:43:01;6.27;;;5.70;;
26106;SDS011;13866;50.748;12.630;2022-10-31T07:45:27;6.80;;;5.80;;
26106;SDS011;13866;50.748;12.630;2022-10-31T07:47:53;5.63;;;4.93;;
26106;SDS011;13866;50.748;12.630;2022-10-31T07:50:20;11.33;;;5.50;;
26106;SDS011;13866;50.748;12.630;2022-10-31T07:52:47;10.50;;;6.30;;
26106;SDS011;13866;50.748;12.630;2022-10-31T07:55:13;6.70;;;5.97;;
26106;SDS011;13866;50.748;12.630;2022-10-31T07:57:39;6.10;;;5.47;;
26106;SDS011;13866;50.748;12.630;2022-10-31T08:00:06;15.57;;;5.93;;
26106;SDS011;13866;50.748;12.630;2022-10-31T08:02:33;5.40;;;4.90;;
26106;SDS011;13866;50.748;12.630;2022-10-31T08:04:58;7.03;;;5.90;;
26106;SDS011;13866;50.748;12.630;2022-10-31T08:07:25;12.63;;;7.30;;
26106;SDS011;13866;50.748;12.630;2022-10-31T08:09:50;18.83;;;8.27;;
26106;SDS011;13866;50.748;12.630;2022-10-31T08:12:16;12.30;;;7.07;;
26106;SDS011;13866;50.748;12.630;2022-10-31T08:14:42;6.70;;;5.53;;
26106;SDS011;13866;50.748;12.630;2022-10-31T08:17:07;9.30;;;5.97;;
26106;SDS011;13866;50.748;12.630;2022-10-31T08:19:33;6.47;;;5.90;;
26106;SDS011;13866;50.748;12.630;2022-10-31T08:21:58;7.90;;;5.60;;
26106;SDS011;13866;50.748;12.630;2022-10-31T08:24:24;5.40;;;5.00;;
26106;SDS011;13866;50.748;12.630;2022-10-31T08:26:49;4.93;;;4.40;;
26106;SDS011;13866;50.748;12.630;2022-10-31T08:29:15;7.20;;;4.80;;
26106;SDS011;13866;50.748;12.630;2022-10-31T08:31:41;6.20;;;5.60;;
26106;SDS011;13866;50.748;12.630;2022-10-31T08:34:07;6.40;;;5.80;;
26106;SDS011;13866;50.748;12.630;2022-10-31T08:36:33;8.53;;;5.10;;
26106;SDS011;13866;50.748;12.630;2022-10-31T08:38:59;5.30;;;4.90;;
26106;SDS011;13866;50.748;12.630;2022-10-31T08:41:24;4.60;;;4.43;;
26106;SDS011;13866;50.748;12.630;2022-10-31T08:43:50;5.73;;;4.90;;
26106;SDS011;13866;50.748;12.630;2022-10-31T08:46:16;7.80;;;5.07;;
26106;SDS011;13866;50.748;12.630;2022-10-31T08:48:42;6.17;;;5.60;;
26106;SDS011;13866;50.748;12.630;2022-10-31T08:51:07;9.63;;;6.53;;
26106;SDS011;13866;50.748;12.630;2022-10-31T08:53:34;5.17;;;4.73;;
26106;SDS011;13866;50.748;12.630;2022-10-31T08:55:59;13.17;;;5.93;;
26106;SDS011;13866;50.748;12.630;2022-10-31T08:58:25;12.63;;;4.83;;
26106;SDS011;13866;50.748;12.630;2022-10-31T09:00:52;8.83;;;5.63;;
26106;SDS011;13866;50.748;12.630;2022-10-31T09:03:19;10.10;;;5.80;;
26106;SDS011;13866;50.748;12.630;2022-10-31T09:05:47;4.43;;;4.00;;
26106;SDS011;13866;50.748;12.630;2022-10-31T09:08:12;5.40;;;3.90;;
26106;SDS011;13866;50.748;12.630;2022-10-31T09:10:38;11.67;;;4.77;;
26106;SDS011;13866;50.748;12.630;2022-10-31T09:13:05;7.00;;;4.40;;
26106;SDS011;13866;50.748;12.630;2022-10-31T09:15:33;17.17;;;4.70;;
26106;SDS011;13866;50.748;12.630;2022-10-31T09:18:00;8.63;;;4.53;;
26106;SDS011;13866;50.748;12.630;2022-10-31T09:20:26;5.00;;;4.50;;
26106;SDS011;13866;50.748;12.630;2022-10-31T09:22:56;5.73;;;4.53;;
26106;SDS011;13866;50.748;12.630;2022-10-31T09:25:23;5.80;;;3.73;;
26106;SDS011;13866;50.748;12.630;2022-10-31T09:27:48;4.80;;;4.00;;
26106;SDS011;13866;50.748;12.630;2022-10-31T09:30:14;7.00;;;4.17;;
26106;SDS011;13866;50.748;12.630;2022-10-31T09:32:39;6.00;;;4.27;;
26106;SDS011;13866;50.748;12.630;2022-10-31T09:35:05;5.10;;;4.60;;
26106;SDS011;13866;50.748;12.630;2022-10-31T09:37:31;5.07;;;3.90;;
26106;SDS011;13866;50.748;12.630;2022-10-31T09:39:56;10.13;;;4.37;;
26106;SDS011;13866;50.748;12.630;2022-10-31T09:42:28;4.10;;;3.70;;
26106;SDS011;13866;50.748;12.630;2022-10-31T09:45:11;7.63;;;3.97;;
26106;SDS011;13866;50.748;12.630;2022-10-31T09:47:52;15.37;;;3.90;;
26106;SDS011;13866;50.748;12.630;2022-10-31T09:50:22;8.17;;;4.90;;
26106;SDS011;13866;50.748;12.630;2022-10-31T09:52:57;4.30;;;3.60;;
26106;SDS011;13866;50.748;12.630;2022-10-31T09:55:36;4.30;;;3.33;;
26106;SDS011;13866;50.748;12.630;2022-10-31T09:58:05;11.83;;;4.63;;
26106;SDS011;13866;50.748;12.630;2022-10-31T10:00:54;6.10;;;4.10;;
26106;SDS011;13866;50.748;12.630;2022-10-31T10:06:11;6.53;;;3.57;;
26106;SDS011;13866;50.748;12.630;2022-10-31T10:08:46;7.00;;;4.80;;
26106;SDS011;13866;50.748;12.630;2022-10-31T10:13:57;10.53;;;5.20;;
26106;SDS011;13866;50.748;12.630;2022-10-31T10:22:29;5.50;;;3.70;;
26106;SDS011;13866;50.748;12.630;2022-10-31T10:30:42;7.97;;;4.17;;
26106;SDS011;13866;50.748;12.630;2022-10-31T10:33:31;10.30;;;5.03;;
26106;SDS011;13866;50.748;12.630;2022-10-31T10:36:26;5.33;;;4.23;;
26106;SDS011;13866;50.748;12.630;2022-10-31T10:41:32;25.63;;;5.53;;
26106;SDS011;13866;50.748;12.630;2022-10-31T10:43:58;8.80;;;5.17;;
26106;SDS011;13866;50.748;12.630;2022-10-31T10:46:34;12.83;;;4.47;;
26106;SDS011;13866;50.748;12.630;2022-10-31T10:49:48;4.30;;;4.00;;
26106;SDS011;13866;50.748;12.630;2022-10-31T10:55:02;6.50;;;5.27;;
26106;SDS011;13866;50.748;12.630;2022-10-31T10:57:40;14.80;;;3.97;;
26106;SDS011;13866;50.748;12.630;2022-10-31T11:00:20;8.33;;;4.87;;
26106;SDS011;13866;50.748;12.630;2022-10-31T11:02:50;7.47;;;3.50;;
26106;SDS011;13866;50.748;12.630;2022-10-31T11:08:26;19.53;;;3.53;;
26106;SDS011;13866;50.748;12.630;2022-10-31T11:13:32;14.10;;;4.40;;
26106;SDS011;13866;50.748;12.630;2022-10-31T11:16:01;4.77;;;3.90;;
26106;SDS011;13866;50.748;12.630;2022-10-31T11:18:37;5.60;;;3.90;;
26106;SDS011;13866;50.748;12.630;2022-10-31T11:21:05;6.50;;;3.90;;
26106;SDS011;13866;50.748;12.630;2022-10-31T11:23:31;4.40;;;3.83;;
26106;SDS011;13866;50.748;12.630;2022-10-31T11:26:01;11.93;;;5.30;;
26106;SDS011;13866;50.748;12.630;2022-10-31T11:28:30;5.70;;;3.73;;
26106;SDS011;13866;50.748;12.630;2022-10-31T11:31:01;5.40;;;3.80;;
26106;SDS011;13866;50.748;12.630;2022-10-31T11:33:35;11.17;;;4.50;;
26106;SDS011;13866;50.748;12.630;2022-10-31T11:36:18;8.63;;;4.83;;
26106;SDS011;13866;50.748;12.630;2022-10-31T11:38:48;12.70;;;4.10;;
26106;SDS011;13866;50.748;12.630;2022-10-31T11:41:33;12.00;;;4.77;;
26106;SDS011;13866;50.748;12.630;2022-10-31T11:44:04;7.27;;;5.03;;
26106;SDS011;13866;50.748;12.630;2022-10-31T11:46:43;13.80;;;5.23;;
26106;SDS011;13866;50.748;12.630;2022-10-31T11:49:17;7.53;;;3.90;;
26106;SDS011;13866;50.748;12.630;2022-10-31T11:51:47;8.90;;;4.43;;
26106;SDS011;13866;50.748;12.630;2022-10-31T11:54:41;8.37;;;5.47;;
26106;SDS011;13866;50.748;12.630;2022-10-31T11:57:21;16.83;;;4.27;;
26106;SDS011;13866;50.748;12.630;2022-10-31T11:59:52;4.93;;;3.77;;
26106;SDS011;13866;50.748;12.630;2022-10-31T12:02:21;11.00;;;4.70;;
26106;SDS011;13866;50.748;12.630;2022-10-31T12:04:48;6.80;;;4.83;;
26106;SDS011;13866;50.748;12.630;2022-10-31T12:07:22;9.20;;;3.60;;
26106;SDS011;13866;50.748;12.630;2022-10-31T12:09:48;4.63;;;4.33;;
26106;SDS011;13866;50.748;12.630;2022-10-31T12:20:26;12.20;;;3.37;;
26106;SDS011;13866;50.748;12.630;2022-10-31T12:25:59;8.63;;;4.20;;
26106;SDS011;13866;50.748;12.630;2022-10-31T12:37:00;4.60;;;4.17;;
26106;SDS011;13866;50.748;12.630;2022-10-31T12:39:51;4.27;;;3.77;;
26106;SDS011;13866;50.748;12.630;2022-10-31T12:42:47;16.87;;;4.13;;
26106;SDS011;13866;50.748;12.630;2022-10-31T12:45:43;7.50;;;4.43;;
26106;SDS011;13866;50.748;12.630;2022-10-31T12:51:36;8.13;;;4.23;;
26106;SDS011;13866;50.748;12.630;2022-10-31T12:54:24;4.10;;;3.70;;
26106;SDS011;13866;50.748;12.630;2022-10-31T12:59:56;6.93;;;3.80;;
26106;SDS011;13866;50.748;12.630;2022-10-31T13:02:50;9.83;;;4.20;;
26106;SDS011;13866;50.748;12.630;2022-10-31T13:05:24;4.77;;;4.07;;
26106;SDS011;13866;50.748;12.630;2022-10-31T13:08:08;8.23;;;4.50;;
26106;SDS011;13866;50.748;12.630;2022-10-31T13:10:51;8.63;;;3.97;;
26106;SDS011;13866;50.748;12.630;2022-10-31T13:13:33;4.47;;;4.07;;
26106;SDS011;13866;50.748;12.630;2022-10-31T13:16:07;8.47;;;4.60;;
26106;SDS011;13866;50.748;12.630;2022-10-31T13:18:48;4.53;;;3.63;;
26106;SDS011;13866;50.748;12.630;2022-10-31T13:21:31;6.47;;;4.10;;
26106;SDS011;13866;50.748;12.630;2022-10-31T13:24:02;5.57;;;3.53;;
26106;SDS011;13866;50.748;12.630;2022-10-31T13:26:36;8.73;;;4.53;;
26106;SDS011;13866;50.748;12.630;2022-10-31T13:29:15;8.27;;;4.60;;
26106;SDS011;13866;50.748;12.630;2022-10-31T13:31:49;5.23;;;4.97;;
26106;SDS011;13866;50.748;12.630;2022-10-31T13:34:32;11.53;;;4.53;;
26106;SDS011;13866;50.748;12.630;2022-10-31T13:37:26;16.10;;;5.20;;
26106;SDS011;13866;50.748;12.630;2022-10-31T13:42:57;7.07;;;5.20;;
26106;SDS011;13866;50.748;12.630;2022-10-31T13:45:35;7.93;;;4.83;;
26106;SDS011;13866;50.748;12.630;2022-10-31T13:48:17;15.03;;;5.20;;
26106;SDS011;13866;50.748;12.630;2022-10-31T13:50:55;10.53;;;5.10;;
26106;SDS011;13866;50.748;12.630;2022-10-31T13:53:37;13.67;;;6.37;;
26106;SDS011;13866;50.748;12.630;2022-10-31T13:56:27;15.27;;;5.33;;
26106;SDS011;13866;50.748;12.630;2022-10-31T13:59:37;5.77;;;4.90;;
26106;SDS011;13866;50.748;12.630;2022-10-31T14:01:47;9.70;;;5.63;;
26106;SDS011;13866;50.748;12.630;2022-10-31T14:04:31;8.20;;;4.97;;
26106;SDS011;13866;50.748;12.630;2022-10-31T14:07:21;5.43;;;4.43;;
26106;SDS011;13866;50.748;12.630;2022-10-31T14:10:04;9.07;;;4.90;;
26106;SDS011;13866;50.748;12.630;2022-10-31T14:12:37;12.40;;;5.43;;
26106;SDS011;13866;50.748;12.630;2022-10-31T14:20:34;10.23;;;4.40;;
26106;SDS011;13866;50.748;12.630;2022-10-31T14:26:18;12.83;;;5.13;;
26106;SDS011;13866;50.748;12.630;2022-10-31T14:50:32;13.73;;;5.80;;
26106;SDS011;13866;50.748;12.630;2022-10-31T14:53:12;11.10;;;5.70;;
26106;SDS011;13866;50.748;12.630;2022-10-31T14:55:44;12.40;;;6.90;;
26106;SDS011;13866;50.748;12.630;2022-10-31T14:58:16;21.07;;;7.97;;
26106;SDS011;13866;50.748;12.630;2022-10-31T15:00:53;9.67;;;6.60;;
26106;SDS011;13866;50.748;12.630;2022-10-31T15:05:57;10.87;;;5.20;;
26106;SDS011;13866;50.748;12.630;2022-10-31T15:08:29;12.23;;;5.43;;
26106;SDS011;13866;50.748;12.630;2022-10-31T15:11:03;27.03;;;5.63;;
26106;SDS011;13866;50.748;12.630;2022-10-31T15:16:16;29.57;;;24.30;;
26106;SDS011;13866;50.748;12.630;2022-10-31T15:18:46;13.97;;;11.33;;
26106;SDS011;13866;50.748;12.630;2022-10-31T15:21:24;14.03;;;9.57;;
26106;SDS011;13866;50.748;12.630;2022-10-31T15:23:53;14.33;;;10.20;;
26106;SDS011;13866;50.748;12.630;2022-10-31T15:26:22;12.70;;;11.10;;
26106;SDS011;13866;50.748;12.630;2022-10-31T15:29:02;12.33;;;8.40;;
26106;SDS011;13866;50.748;12.630;2022-10-31T15:31:30;12.00;;;8.83;;
26106;SDS011;13866;50.748;12.630;2022-10-31T15:33:57;7.57;;;6.97;;
26106;SDS011;13866;50.748;12.630;2022-10-31T15:36:28;14.50;;;6.67;;
26106;SDS011;13866;50.748;12.630;2022-10-31T15:38:55;7.03;;;6.33;;
26106;SDS011;13866;50.748;12.630;2022-10-31T15:43:58;17.30;;;9.50;;
26106;SDS011;13866;50.748;12.630;2022-10-31T15:46:27;16.33;;;9.70;;
26106;SDS011;13866;50.748;12.630;2022-10-31T15:48:53;35.23;;;9.97;;
26106;SDS011;13866;50.748;12.630;2022-10-31T15:51:25;15.43;;;8.97;;
26106;SDS011;13866;50.748;12.630;2022-10-31T15:53:57;15.23;;;8.60;;
26106;SDS011;13866;50.748;12.630;2022-10-31T15:56:25;19.07;;;10.00;;
26106;SDS011;13866;50.748;12.630;2022-10-31T15:58:57;12.13;;;9.60;;
26106;SDS011;13866;50.748;12.630;2022-10-31T16:01:24;21.90;;;8.10;;
26106;SDS011;13866;50.748;12.630;2022-10-31T16:04:03;13.93;;;7.57;;
26106;SDS011;13866;50.748;12.630;2022-10-31T16:06:40;16.90;;;8.63;;
26106;SDS011;13866;50.748;12.630;2022-10-31T16:09:19;10.87;;;8.03;;
26106;SDS011;13866;50.748;12.630;2022-10-31T16:11:47;13.43;;;9.40;;
26106;SDS011;13866;50.748;12.630;2022-10-31T16:16:47;22.73;;;13.20;;
26106;SDS011;13866;50.748;12.630;2022-10-31T16:21:44;10.40;;;9.50;;
26106;SDS011;13866;50.748;12.630;2022-10-31T16:24:22;10.63;;;9.70;;
26106;SDS011;13866;50.748;12.630;2022-10-31T16:26:50;10.27;;;9.53;;
26106;SDS011;13866;50.748;12.630;2022-10-31T16:29:26;11.80;;;10.60;;
26106;SDS011;13866;50.748;12.630;2022-10-31T16:31:53;24.03;;;11.30;;
26106;SDS011;13866;50.748;12.630;2022-10-31T16:34:20;14.70;;;11.63;;
26106;SDS011;13866;50.748;12.630;2022-10-31T16:36:47;18.60;;;14.80;;
26106;SDS011;13866;50.748;12.630;2022-10-31T16:39:13;20.20;;;17.50;;
26106;SDS011;13866;50.748;12.630;2022-10-31T16:41:42;18.20;;;16.33;;
26106;SDS011;13866;50.748;12.630;2022-10-31T16:44:28;22.03;;;16.40;;
26106;SDS011;13866;50.748;12.630;2022-10-31T16:49:31;12.90;;;9.47;;
26106;SDS011;13866;50.748;12.630;2022-10-31T16:51:57;19.63;;;9.50;;
26106;SDS011;13866;50.748;12.630;2022-10-31T16:54:22;15.57;;;12.87;;
26106;SDS011;13866;50.748;12.630;2022-10-31T16:56:48;25.77;;;13.60;;
26106;SDS011;13866;50.748;12.630;2022-10-31T16:59:14;15.80;;;12.50;;
26106;SDS011;13866;50.748;12.630;2022-10-31T17:01:39;13.60;;;11.17;;
26106;SDS011;13866;50.748;12.630;2022-10-31T17:04:07;25.80;;;12.57;;